sensor_id;sensor_type;location;lat;lon;timestamp;pressure;altitude;pressure_sealevel;temperature;humidity
66176;BME280;52977;44.816;20.538;2023-02-13T00:01:46;101831.66;;;4.79;68.59
66176;BME280;52977;44.816;20.538;2023-02-13T00:04:12;101782.81;;;4.43;68.91
66176;BME280;52977;44.816;20.538;2023-02-13T00:06:39;101800.41;;;4.53;69.87
66176;BME280;52977;44.816;20.538;2023-02-13T00:09:05;101783.53;;;4.39;70.04
66176;BME280;52977;44.816;20.538;2023-02-13T00:11:36;101789.19;;;4.49;69.72
66176;BME280;52977;44.816;20.538;2023-02-13T00:14:03;101783.56;;;4.51;68.91
66176;BME280;52977;44.816;20.538;2023-02-13T00:16:29;101837.31;;;4.89;69.41
66176;BME280;52977;44.816;20.538;2023-02-13T00:18:55;101840.03;;;4.89;69.48
66176;BME280;52977;44.816;20.538;2023-02-13T00:21:22;101749.47;;;4.19;69.95
66176;BME280;52977;44.816;20.538;2023-02-13T00:23:48;101853.06;;;4.81;69.55
66176;BME280;52977;44.816;20.538;2023-02-13T00:26:15;101762.06;;;4.25;69.72
66176;BME280;52977;44.816;20.538;2023-02-13T00:28:43;101738.81;;;4.24;68.88
66176;BME280;52977;44.816;20.538;2023-02-13T00:31:12;101844.63;;;5.01;68.83
66176;BME280;52977;44.816;20.538;2023-02-13T00:33:40;101854.28;;;4.96;69.18
66176;BME280;52977;44.816;20.538;2023-02-13T00:36:09;101818.78;;;4.74;68.58
66176;BME280;52977;44.816;20.538;2023-02-13T00:38:37;101854.16;;;5.03;68.23
66176;BME280;52977;44.816;20.538;2023-02-13T00:41:04;101839.34;;;4.94;67.65
66176;BME280;52977;44.816;20.538;2023-02-13T00:43:31;101852.31;;;5.04;67.92
66176;BME280;52977;44.816;20.538;2023-02-13T00:45:58;101863.31;;;4.90;68.47
66176;BME280;52977;44.816;20.538;2023-02-13T00:48:25;101845.91;;;4.86;68.83
66176;BME280;52977;44.816;20.538;2023-02-13T00:50:51;101856.03;;;4.91;68.92
66176;BME280;52977;44.816;20.538;2023-02-13T00:53:18;101842.25;;;4.92;68.66
66176;BME280;52977;44.816;20.538;2023-02-13T00:55:45;101850.97;;;4.94;68.08
66176;BME280;52977;44.816;20.538;2023-02-13T00:58:12;101851.22;;;4.93;67.96
66176;BME280;52977;44.816;20.538;2023-02-13T01:00:38;101837.16;;;4.84;68.62
66176;BME280;52977;44.816;20.538;2023-02-13T01:03:05;101816.44;;;4.66;68.55
66176;BME280;52977;44.816;20.538;2023-02-13T01:05:32;101856.25;;;4.89;68.21
66176;BME280;52977;44.816;20.538;2023-02-13T01:07:58;101846.38;;;4.83;68.23
66176;BME280;52977;44.816;20.538;2023-02-13T01:10:25;101859.34;;;4.93;67.90
66176;BME280;52977;44.816;20.538;2023-02-13T01:12:51;101859.91;;;4.95;67.96
66176;BME280;52977;44.816;20.538;2023-02-13T01:15:18;101860.16;;;4.93;67.44
66176;BME280;52977;44.816;20.538;2023-02-13T01:17:45;101862.88;;;4.93;67.37
66176;BME280;52977;44.816;20.538;2023-02-13T01:20:12;101861.00;;;4.94;67.34
66176;BME280;52977;44.816;20.538;2023-02-13T01:22:39;101846.38;;;4.83;67.33
66176;BME280;52977;44.816;20.538;2023-02-13T01:25:06;101741.75;;;4.23;67.53
66176;BME280;52977;44.816;20.538;2023-02-13T01:27:32;101854.28;;;4.96;67.17
66176;BME280;52977;44.816;20.538;2023-02-13T01:29:59;101849.19;;;4.88;67.73
66176;BME280;52977;44.816;20.538;2023-02-13T01:32:25;101776.59;;;4.43;67.63
66176;BME280;52977;44.816;20.538;2023-02-13T01:34:51;101842.59;;;4.84;67.32
66176;BME280;52977;44.816;20.538;2023-02-13T01:37:18;101831.28;;;4.75;67.92
66176;BME280;52977;44.816;20.538;2023-02-13T01:39:44;101860.16;;;4.93;67.94
66176;BME280;52977;44.816;20.538;2023-02-13T01:42:20;101852.50;;;4.90;67.46
66176;BME280;52977;44.816;20.538;2023-02-13T01:44:49;101855.31;;;4.84;68.13
66176;BME280;52977;44.816;20.538;2023-02-13T01:47:23;101760.78;;;4.28;68.20
66176;BME280;52977;44.816;20.538;2023-02-13T01:49:58;101850.13;;;4.82;68.36
66176;BME280;52977;44.816;20.538;2023-02-13T01:52:26;101847.19;;;4.84;67.71
66176;BME280;52977;44.816;20.538;2023-02-13T01:54:52;101776.47;;;4.38;67.84
66176;BME280;52977;44.816;20.538;2023-02-13T01:57:20;101836.00;;;4.80;67.88
66176;BME280;52977;44.816;20.538;2023-02-13T01:59:56;101809.13;;;4.67;67.97
66176;BME280;52977;44.816;20.538;2023-02-13T02:02:26;101836.44;;;4.77;68.85
66176;BME280;52977;44.816;20.538;2023-02-13T02:04:59;101835.16;;;4.79;68.75
66176;BME280;52977;44.816;20.538;2023-02-13T02:07:28;101822.19;;;4.70;67.52
66176;BME280;52977;44.816;20.538;2023-02-13T02:10:03;101819.00;;;4.61;68.58
66176;BME280;52977;44.816;20.538;2023-02-13T02:15:00;101814.78;;;4.35;68.76
66176;BME280;52977;44.816;20.538;2023-02-13T02:17:30;101837.56;;;4.57;69.04
66176;BME280;52977;44.816;20.538;2023-02-13T02:20:06;101842.66;;;4.66;68.57
66176;BME280;52977;44.816;20.538;2023-02-13T02:28:38;101851.16;;;4.81;67.46
66176;BME280;52977;44.816;20.538;2023-02-13T02:31:18;101853.66;;;4.83;67.82
66176;BME280;52977;44.816;20.538;2023-02-13T02:37:05;101855.84;;;4.74;68.16
66176;BME280;52977;44.816;20.538;2023-02-13T02:42:59;101858.53;;;4.62;68.22
66176;BME280;52977;44.816;20.538;2023-02-13T02:53:44;101857.69;;;4.61;68.75
66176;BME280;52977;44.816;20.538;2023-02-13T02:56:19;101815.59;;;4.35;68.87
66176;BME280;52977;44.816;20.538;2023-02-13T03:01:39;101843.13;;;4.62;69.10
66176;BME280;52977;44.816;20.538;2023-02-13T03:04:29;101865.56;;;4.63;69.16
66176;BME280;52977;44.816;20.538;2023-02-13T03:07:16;101845.41;;;4.47;69.67
66176;BME280;52977;44.816;20.538;2023-02-13T03:09:46;101868.50;;;4.61;69.29
66176;BME280;52977;44.816;20.538;2023-02-13T03:12:42;101825.75;;;4.40;69.09
66176;BME280;52977;44.816;20.538;2023-02-13T03:15:28;101841.97;;;4.40;69.34
66176;BME280;52977;44.816;20.538;2023-02-13T03:17:55;101865.34;;;4.65;69.89
66176;BME280;52977;44.816;20.538;2023-02-13T03:26:50;101834.75;;;4.34;70.17
66176;BME280;52977;44.816;20.538;2023-02-13T03:32:46;101883.44;;;4.52;70.37
66176;BME280;52977;44.816;20.538;2023-02-13T03:35:29;101873.88;;;4.50;70.88
66176;BME280;52977;44.816;20.538;2023-02-13T03:38:36;101876.28;;;4.58;70.57
66176;BME280;52977;44.816;20.538;2023-02-13T03:41:10;101845.34;;;4.35;70.00
66176;BME280;52977;44.816;20.538;2023-02-13T03:46:20;101853.69;;;4.52;69.58
66176;BME280;52977;44.816;20.538;2023-02-13T03:48:47;101870.16;;;4.62;69.39
66176;BME280;52977;44.816;20.538;2023-02-13T03:51:36;101868.41;;;4.56;70.31
66176;BME280;52977;44.816;20.538;2023-02-13T03:54:05;101867.56;;;4.56;70.33
66176;BME280;52977;44.816;20.538;2023-02-13T03:56:34;101869.44;;;4.55;70.35
66176;BME280;52977;44.816;20.538;2023-02-13T03:59:25;101855.53;;;4.52;70.57
66176;BME280;52977;44.816;20.538;2023-02-13T04:02:00;101853.69;;;4.52;70.26
66176;BME280;52977;44.816;20.538;2023-02-13T04:05:16;101760.56;;;3.99;70.00
66176;BME280;52977;44.816;20.538;2023-02-13T04:07:17;101860.31;;;4.68;69.97
66176;BME280;52977;44.816;20.538;2023-02-13T04:09:59;101770.16;;;4.14;69.94
66176;BME280;52977;44.816;20.538;2023-02-13T04:15:06;101865.50;;;4.70;70.00
66176;BME280;52977;44.816;20.538;2023-02-13T04:17:37;101852.19;;;4.68;69.70
66176;BME280;52977;44.816;20.538;2023-02-13T04:20:05;101853.84;;;4.69;69.77
66176;BME280;52977;44.816;20.538;2023-02-13T04:22:31;101848.69;;;4.68;70.10
66176;BME280;52977;44.816;20.538;2023-02-13T04:24:56;101801.81;;;4.25;70.40
66176;BME280;52977;44.816;20.538;2023-02-13T04:27:24;101828.81;;;4.43;70.72
66176;BME280;52977;44.816;20.538;2023-02-13T04:29:51;101762.44;;;3.99;70.38
66176;BME280;52977;44.816;20.538;2023-02-13T04:32:17;101855.59;;;4.64;70.60
66176;BME280;52977;44.816;20.538;2023-02-13T04:34:43;101843.28;;;4.49;70.34
66176;BME280;52977;44.816;20.538;2023-02-13T04:37:08;101863.34;;;4.60;71.33
66176;BME280;52977;44.816;20.538;2023-02-13T04:39:34;101765.75;;;4.01;71.16
66176;BME280;52977;44.816;20.538;2023-02-13T04:41:59;101855.59;;;4.64;71.41
66176;BME280;52977;44.816;20.538;2023-02-13T04:44:25;101786.94;;;4.16;70.98
66176;BME280;52977;44.816;20.538;2023-02-13T04:46:50;101865.53;;;4.51;70.84
66176;BME280;52977;44.816;20.538;2023-02-13T04:49:16;101856.16;;;4.35;71.77
66176;BME280;52977;44.816;20.538;2023-02-13T04:51:42;101854.66;;;4.39;71.45
66176;BME280;52977;44.816;20.538;2023-02-13T04:54:07;101800.56;;;4.09;71.65
66176;BME280;52977;44.816;20.538;2023-02-13T04:56:33;101854.97;;;4.50;71.81
66176;BME280;52977;44.816;20.538;2023-02-13T04:58:59;101801.16;;;4.11;71.69
66176;BME280;52977;44.816;20.538;2023-02-13T05:01:25;101847.97;;;4.42;71.76
66176;BME280;52977;44.816;20.538;2023-02-13T05:03:51;101870.94;;;4.51;71.17
66176;BME280;52977;44.816;20.538;2023-02-13T05:06:17;101868.47;;;4.50;71.34
66176;BME280;52977;44.816;20.538;2023-02-13T05:08:43;101824.25;;;4.25;71.16
66176;BME280;52977;44.816;20.538;2023-02-13T05:11:09;101708.28;;;3.56;71.86
66176;BME280;52977;44.816;20.538;2023-02-13T05:13:35;101832.50;;;4.31;71.86
66176;BME280;52977;44.816;20.538;2023-02-13T05:16:01;101864.94;;;4.49;71.46
66176;BME280;52977;44.816;20.538;2023-02-13T05:18:28;101791.56;;;3.59;72.40
66176;BME280;52977;44.816;20.538;2023-02-13T05:20:54;101836.78;;;3.64;73.43
66176;BME280;52977;44.816;20.538;2023-02-13T05:23:38;101841.03;;;3.79;73.49
66176;BME280;52977;44.816;20.538;2023-02-13T05:26:04;101857.69;;;4.13;72.72
66176;BME280;52977;44.816;20.538;2023-02-13T05:28:31;101843.03;;;4.02;73.27
66176;BME280;52977;44.816;20.538;2023-02-13T05:31:15;101840.03;;;4.10;72.95
66176;BME280;52977;44.816;20.538;2023-02-13T05:33:40;101871.81;;;4.33;72.54
66176;BME280;52977;44.816;20.538;2023-02-13T05:36:06;101879.59;;;4.41;72.21
66176;BME280;52977;44.816;20.538;2023-02-13T05:38:32;101858.06;;;4.35;71.73
66176;BME280;52977;44.816;20.538;2023-02-13T05:40:58;101863.84;;;4.38;71.52
66176;BME280;52977;44.816;20.538;2023-02-13T05:43:25;101848.16;;;4.28;71.30
66176;BME280;52977;44.816;20.538;2023-02-13T05:46:00;101844.69;;;4.21;71.91
66176;BME280;52977;44.816;20.538;2023-02-13T05:48:27;101895.84;;;4.41;71.66
66176;BME280;52977;44.816;20.538;2023-02-13T05:50:52;101881.47;;;4.41;71.30
66176;BME280;52977;44.816;20.538;2023-02-13T05:53:18;101863.53;;;4.28;71.56
66176;BME280;52977;44.816;20.538;2023-02-13T05:55:44;101890.28;;;4.36;72.00
66176;BME280;52977;44.816;20.538;2023-02-13T05:58:10;101878.47;;;4.31;71.25
66176;BME280;52977;44.816;20.538;2023-02-13T06:00:36;101887.94;;;4.40;71.31
66176;BME280;52977;44.816;20.538;2023-02-13T06:03:01;101886.53;;;4.37;71.06
66176;BME280;52977;44.816;20.538;2023-02-13T06:05:27;101896.28;;;4.38;71.44
66176;BME280;52977;44.816;20.538;2023-02-13T06:07:53;101888.84;;;4.34;71.43
66176;BME280;52977;44.816;20.538;2023-02-13T06:10:19;101902.13;;;4.35;71.71
66176;BME280;52977;44.816;20.538;2023-02-13T06:12:46;101895.44;;;4.38;71.70
66176;BME280;52977;44.816;20.538;2023-02-13T06:15:13;101892.63;;;4.33;71.66
66176;BME280;52977;44.816;20.538;2023-02-13T06:17:38;101882.22;;;4.30;71.23
66176;BME280;52977;44.816;20.538;2023-02-13T06:20:05;101898.75;;;4.40;71.59
66176;BME280;52977;44.816;20.538;2023-02-13T06:22:31;101892.09;;;4.42;71.79
66176;BME280;52977;44.816;20.538;2023-02-13T06:24:56;101897.25;;;4.44;71.35
66176;BME280;52977;44.816;20.538;2023-02-13T06:27:22;101892.91;;;4.43;72.06
66176;BME280;52977;44.816;20.538;2023-02-13T06:29:48;101883.06;;;4.30;71.43
66176;BME280;52977;44.816;20.538;2023-02-13T06:32:15;101891.00;;;4.43;72.01
66176;BME280;52977;44.816;20.538;2023-02-13T06:34:41;101904.31;;;4.45;72.41
66176;BME280;52977;44.816;20.538;2023-02-13T06:37:07;101840.44;;;4.14;71.54
66176;BME280;52977;44.816;20.538;2023-02-13T06:39:33;101888.06;;;4.45;71.96
66176;BME280;52977;44.816;20.538;2023-02-13T06:41:59;101890.78;;;4.45;71.97
66176;BME280;52977;44.816;20.538;2023-02-13T06:44:25;101885.53;;;4.50;71.80
66176;BME280;52977;44.816;20.538;2023-02-13T06:46:51;101887.41;;;4.50;71.89
66176;BME280;52977;44.816;20.538;2023-02-13T06:49:18;101889.50;;;4.48;71.95
66176;BME280;52977;44.816;20.538;2023-02-13T06:51:44;101841.47;;;4.13;72.00
66176;BME280;52977;44.816;20.538;2023-02-13T06:54:10;101892.16;;;4.36;73.06
66176;BME280;52977;44.816;20.538;2023-02-13T06:56:36;101815.81;;;4.03;72.52
66176;BME280;52977;44.816;20.538;2023-02-13T06:59:02;101900.72;;;4.51;71.91
66176;BME280;52977;44.816;20.538;2023-02-13T07:01:28;101864.16;;;4.30;72.42
66176;BME280;52977;44.816;20.538;2023-02-13T07:03:54;101889.44;;;4.36;72.73
66176;BME280;52977;44.816;20.538;2023-02-13T07:06:20;101910.91;;;4.49;72.83
66176;BME280;52977;44.816;20.538;2023-02-13T07:08:46;101893.63;;;4.50;72.90
66176;BME280;52977;44.816;20.538;2023-02-13T07:11:17;101906.34;;;4.50;73.20
66176;BME280;52977;44.816;20.538;2023-02-13T07:13:45;101896.19;;;4.45;72.77
66176;BME280;52977;44.816;20.538;2023-02-13T07:16:10;101898.22;;;4.50;73.72
66176;BME280;52977;44.816;20.538;2023-02-13T07:18:36;101908.66;;;4.46;73.75
66176;BME280;52977;44.816;20.538;2023-02-13T07:21:02;101893.97;;;4.23;74.06
66176;BME280;52977;44.816;20.538;2023-02-13T07:23:27;101901.53;;;4.33;73.42
66176;BME280;52977;44.816;20.538;2023-02-13T07:25:53;101874.59;;;4.26;73.20
66176;BME280;52977;44.816;20.538;2023-02-13T07:28:19;101863.06;;;4.31;73.07
66176;BME280;52977;44.816;20.538;2023-02-13T07:30:44;101903.88;;;4.48;72.49
66176;BME280;52977;44.816;20.538;2023-02-13T07:33:10;101917.22;;;4.61;71.78
66176;BME280;52977;44.816;20.538;2023-02-13T07:35:36;101908.81;;;4.51;72.70
66176;BME280;52977;44.816;20.538;2023-02-13T07:38:03;101841.91;;;3.72;73.34
66176;BME280;52977;44.816;20.538;2023-02-13T07:40:29;101932.09;;;4.15;74.28
66176;BME280;52977;44.816;20.538;2023-02-13T07:42:59;101914.69;;;4.30;74.35
66176;BME280;52977;44.816;20.538;2023-02-13T07:45:24;101840.13;;;3.85;73.96
66176;BME280;52977;44.816;20.538;2023-02-13T07:47:50;101909.56;;;4.03;75.12
66176;BME280;52977;44.816;20.538;2023-02-13T07:50:16;101886.09;;;3.59;76.39
66176;BME280;52977;44.816;20.538;2023-02-13T07:52:42;101924.88;;;3.65;77.99
66176;BME280;52977;44.816;20.538;2023-02-13T07:55:07;101884.84;;;3.37;78.75
66176;BME280;52977;44.816;20.538;2023-02-13T07:57:35;101938.56;;;3.45;79.87
66176;BME280;52977;44.816;20.538;2023-02-13T08:00:01;101925.38;;;3.30;80.59
66176;BME280;52977;44.816;20.538;2023-02-13T08:02:37;101885.13;;;2.97;81.79
66176;BME280;52977;44.816;20.538;2023-02-13T08:05:03;101920.34;;;3.40;80.95
66176;BME280;52977;44.816;20.538;2023-02-13T08:07:29;101905.63;;;3.36;81.31
66176;BME280;52977;44.816;20.538;2023-02-13T08:09:56;101929.94;;;3.62;80.86
66176;BME280;52977;44.816;20.538;2023-02-13T08:12:41;101888.28;;;3.69;80.08
66176;BME280;52977;44.816;20.538;2023-02-13T08:15:10;101914.44;;;3.75;79.22
66176;BME280;52977;44.816;20.538;2023-02-13T08:17:36;101909.47;;;3.47;81.62
66176;BME280;52977;44.816;20.538;2023-02-13T08:20:04;101854.97;;;3.06;82.68
66176;BME280;52977;44.816;20.538;2023-02-13T08:22:32;101905.22;;;3.33;83.99
66176;BME280;52977;44.816;20.538;2023-02-13T08:24:59;101923.31;;;3.57;84.06
66176;BME280;52977;44.816;20.538;2023-02-13T08:27:25;101920.69;;;3.69;82.42
66176;BME280;52977;44.816;20.538;2023-02-13T08:29:52;101900.00;;;3.63;82.50
66176;BME280;52977;44.816;20.538;2023-02-13T08:32:18;101918.16;;;3.74;84.00
66176;BME280;52977;44.816;20.538;2023-02-13T08:34:45;101898.00;;;3.52;84.83
66176;BME280;52977;44.816;20.538;2023-02-13T08:37:11;101894.66;;;3.56;83.83
66176;BME280;52977;44.816;20.538;2023-02-13T08:39:37;101896.56;;;3.74;84.09
66176;BME280;52977;44.816;20.538;2023-02-13T08:42:02;101870.03;;;3.46;86.24
66176;BME280;52977;44.816;20.538;2023-02-13T08:44:29;101923.81;;;3.73;84.45
66176;BME280;52977;44.816;20.538;2023-02-13T08:46:54;101928.91;;;3.81;83.77
66176;BME280;52977;44.816;20.538;2023-02-13T08:49:20;101923.75;;;3.98;81.46
66176;BME280;52977;44.816;20.538;2023-02-13T08:51:46;101865.84;;;3.69;81.79
66176;BME280;52977;44.816;20.538;2023-02-13T08:54:12;101913.31;;;4.02;80.79
66176;BME280;52977;44.816;20.538;2023-02-13T08:56:37;101880.81;;;3.90;81.67
66176;BME280;52977;44.816;20.538;2023-02-13T08:59:03;101913.81;;;4.17;80.64
66176;BME280;52977;44.816;20.538;2023-02-13T09:01:30;101935.44;;;4.36;79.52
66176;BME280;52977;44.816;20.538;2023-02-13T09:03:56;101918.34;;;4.35;78.31
66176;BME280;52977;44.816;20.538;2023-02-13T09:06:22;101915.88;;;4.15;77.22
66176;BME280;52977;44.816;20.538;2023-02-13T09:08:51;101882.94;;;4.06;76.47
66176;BME280;52977;44.816;20.538;2023-02-13T09:11:17;101887.06;;;4.27;74.98
66176;BME280;52977;44.816;20.538;2023-02-13T09:13:44;101887.25;;;4.44;72.32
66176;BME280;52977;44.816;20.538;2023-02-13T09:16:11;101907.00;;;4.64;71.50
66176;BME280;52977;44.816;20.538;2023-02-13T09:18:37;101919.97;;;4.73;71.88
66176;BME280;52977;44.816;20.538;2023-02-13T09:21:08;101846.19;;;4.36;71.56
66176;BME280;52977;44.816;20.538;2023-02-13T09:23:37;101931.00;;;4.90;70.76
66176;BME280;52977;44.816;20.538;2023-02-13T09:26:07;101933.00;;;4.95;70.70
66176;BME280;52977;44.816;20.538;2023-02-13T09:28:35;101918.78;;;4.69;71.01
66176;BME280;52977;44.816;20.538;2023-02-13T09:31:16;101930.22;;;5.02;68.62
66176;BME280;52977;44.816;20.538;2023-02-13T09:33:44;101894.84;;;4.85;69.06
66176;BME280;52977;44.816;20.538;2023-02-13T09:36:13;101932.13;;;5.13;67.27
66176;BME280;52977;44.816;20.538;2023-02-13T09:38:41;101926.94;;;5.11;66.84
66176;BME280;52977;44.816;20.538;2023-02-13T09:41:29;101916.00;;;5.18;66.04
66176;BME280;52977;44.816;20.538;2023-02-13T09:44:19;101937.84;;;5.35;64.88
66176;BME280;52977;44.816;20.538;2023-02-13T09:49:49;101927.03;;;5.47;65.47
66176;BME280;52977;44.816;20.538;2023-02-13T09:52:18;101921.63;;;5.59;62.72
66176;BME280;52977;44.816;20.538;2023-02-13T09:54:44;101909.69;;;5.48;62.21
66176;BME280;52977;44.816;20.538;2023-02-13T10:16:07;101907.84;;;5.84;61.82
66176;BME280;52977;44.816;20.538;2023-02-13T10:21:13;101896.78;;;5.74;62.19
66176;BME280;52977;44.816;20.538;2023-02-13T10:26:37;101870.81;;;5.90;62.22
66176;BME280;52977;44.816;20.538;2023-02-13T10:29:35;101888.28;;;6.06;62.04
66176;BME280;52977;44.816;20.538;2023-02-13T10:32:27;101876.59;;;5.93;62.42
66176;BME280;52977;44.816;20.538;2023-02-13T10:34:58;101790.50;;;5.48;61.77
66176;BME280;52977;44.816;20.538;2023-02-13T10:37:27;101883.19;;;6.09;61.28
66176;BME280;52977;44.816;20.538;2023-02-13T10:39:52;101882.03;;;6.17;61.16
66176;BME280;52977;44.816;20.538;2023-02-13T10:42:43;101865.16;;;6.15;61.21
66176;BME280;52977;44.816;20.538;2023-02-13T10:59:03;101866.88;;;6.33;60.38
66176;BME280;52977;44.816;20.538;2023-02-13T11:01:31;101872.41;;;6.38;60.59
66176;BME280;52977;44.816;20.538;2023-02-13T11:04:10;101870.38;;;6.45;60.06
66176;BME280;52977;44.816;20.538;2023-02-13T11:06:41;101862.25;;;6.45;59.80
66176;BME280;52977;44.816;20.538;2023-02-13T11:09:09;101862.00;;;6.47;59.66
66176;BME280;52977;44.816;20.538;2023-02-13T11:11:40;101802.59;;;6.05;59.60
66176;BME280;52977;44.816;20.538;2023-02-13T11:14:11;101855.94;;;6.57;59.28
66176;BME280;52977;44.816;20.538;2023-02-13T11:16:55;101836.31;;;6.38;59.96
66176;BME280;52977;44.816;20.538;2023-02-13T11:19:34;101859.25;;;6.59;59.71
66176;BME280;52977;44.816;20.538;2023-02-13T11:22:14;101834.06;;;6.46;60.17
66176;BME280;52977;44.816;20.538;2023-02-13T11:24:51;101853.34;;;6.62;60.44
66176;BME280;52977;44.816;20.538;2023-02-13T11:27:23;101837.72;;;6.69;60.14
66176;BME280;52977;44.816;20.538;2023-02-13T11:29:57;101834.22;;;6.86;60.14
66176;BME280;52977;44.816;20.538;2023-02-13T11:32:32;101808.53;;;6.76;59.58
66176;BME280;52977;44.816;20.538;2023-02-13T11:35:29;101807.63;;;6.88;59.31
66176;BME280;52977;44.816;20.538;2023-02-13T11:41:03;101821.66;;;7.13;60.65
66176;BME280;52977;44.816;20.538;2023-02-13T11:43:52;101819.44;;;7.10;60.39
66176;BME280;52977;44.816;20.538;2023-02-13T11:46:23;101820.97;;;7.23;61.25
66176;BME280;52977;44.816;20.538;2023-02-13T11:49:03;101815.84;;;7.27;61.38
66176;BME280;52977;44.816;20.538;2023-02-13T11:51:40;101818.31;;;7.28;60.94
66176;BME280;52977;44.816;20.538;2023-02-13T11:54:40;101804.03;;;7.33;60.50
66176;BME280;52977;44.816;20.538;2023-02-13T11:59:55;101793.19;;;7.38;60.68
66176;BME280;52977;44.816;20.538;2023-02-13T12:02:29;101795.38;;;7.36;61.22
66176;BME280;52977;44.816;20.538;2023-02-13T12:05:15;101799.72;;;7.37;61.17
66176;BME280;52977;44.816;20.538;2023-02-13T12:07:42;101788.13;;;7.25;61.24
66176;BME280;52977;44.816;20.538;2023-02-13T12:10:22;101786.09;;;7.15;61.77
66176;BME280;52977;44.816;20.538;2023-02-13T12:12:54;101716.97;;;6.72;61.42
66176;BME280;52977;44.816;20.538;2023-02-13T12:15:24;101769.63;;;7.05;60.58
66176;BME280;52977;44.816;20.538;2023-02-13T12:18:22;101742.72;;;6.86;60.78
66176;BME280;52977;44.816;20.538;2023-02-13T12:26:43;101776.00;;;7.49;59.58
66176;BME280;52977;44.816;20.538;2023-02-13T12:39:33;101754.56;;;7.53;58.87
66176;BME280;52977;44.816;20.538;2023-02-13T12:47:31;101728.28;;;7.81;57.85
66176;BME280;52977;44.816;20.538;2023-02-13T12:50:34;101750.34;;;8.07;57.45
66176;BME280;52977;44.816;20.538;2023-02-13T12:53:33;101733.44;;;8.04;57.16
66176;BME280;52977;44.816;20.538;2023-02-13T13:04:52;101745.41;;;8.58;56.10
66176;BME280;52977;44.816;20.538;2023-02-13T13:07:50;101744.59;;;8.58;56.44
66176;BME280;52977;44.816;20.538;2023-02-13T13:13:01;101663.78;;;8.31;55.53
66176;BME280;52977;44.816;20.538;2023-02-13T13:15:46;101732.94;;;9.00;54.85
66176;BME280;52977;44.816;20.538;2023-02-13T13:29:14;101736.25;;;8.42;57.40
66176;BME280;52977;44.816;20.538;2023-02-13T13:31:46;101699.28;;;8.19;57.49
66176;BME280;52977;44.816;20.538;2023-02-13T13:34:19;101736.13;;;8.27;57.93
66176;BME280;52977;44.816;20.538;2023-02-13T13:36:52;101706.31;;;8.15;58.07
66176;BME280;52977;44.816;20.538;2023-02-13T13:39:35;101735.78;;;8.23;58.58
66176;BME280;52977;44.816;20.538;2023-02-13T13:42:19;101737.66;;;8.17;58.91
66176;BME280;52977;44.816;20.538;2023-02-13T13:49:54;101658.22;;;7.66;59.89
66176;BME280;52977;44.816;20.538;2023-02-13T13:52:38;101722.63;;;8.10;59.64
66176;BME280;52977;44.816;20.538;2023-02-13T13:55:05;101716.41;;;7.87;59.60
66176;BME280;52977;44.816;20.538;2023-02-13T14:02:46;101687.06;;;7.67;60.03
66176;BME280;52977;44.816;20.538;2023-02-13T14:05:29;101715.19;;;8.05;60.54
66176;BME280;52977;44.816;20.538;2023-02-13T14:08:00;101693.53;;;7.88;60.68
66176;BME280;52977;44.816;20.538;2023-02-13T14:23:31;101708.56;;;8.18;60.47
66176;BME280;52977;44.816;20.538;2023-02-13T14:28:55;101706.84;;;8.12;60.59
66176;BME280;52977;44.816;20.538;2023-02-13T14:31:32;101663.00;;;7.81;60.28
66176;BME280;52977;44.816;20.538;2023-02-13T14:36:31;101706.84;;;7.84;61.53
66176;BME280;52977;44.816;20.538;2023-02-13T14:39:02;101625.06;;;7.42;62.16
66176;BME280;52977;44.816;20.538;2023-02-13T14:44:25;101697.72;;;7.96;62.16
66176;BME280;52977;44.816;20.538;2023-02-13T14:46:57;101652.34;;;7.74;61.54
66176;BME280;52977;44.816;20.538;2023-02-13T14:49:33;101687.28;;;7.87;61.97
66176;BME280;52977;44.816;20.538;2023-02-13T14:52:25;101697.97;;;7.94;61.80
66176;BME280;52977;44.816;20.538;2023-02-13T14:54:57;101662.66;;;7.72;62.01
66176;BME280;52977;44.816;20.538;2023-02-13T14:57:28;101675.94;;;7.68;62.84
66176;BME280;52977;44.816;20.538;2023-02-13T15:00:22;101676.19;;;7.67;63.12
66176;BME280;52977;44.816;20.538;2023-02-13T15:02:57;101644.28;;;7.35;63.26
66176;BME280;52977;44.816;20.538;2023-02-13T15:05:30;101650.72;;;7.51;63.02
66176;BME280;52977;44.816;20.538;2023-02-13T15:08:10;101679.16;;;7.65;63.31
66176;BME280;52977;44.816;20.538;2023-02-13T15:10:43;101674.84;;;7.69;63.62
66176;BME280;52977;44.816;20.538;2023-02-13T15:13:15;101640.16;;;7.55;63.07
66176;BME280;52977;44.816;20.538;2023-02-13T15:15:46;101607.56;;;7.32;62.85
66176;BME280;52977;44.816;20.538;2023-02-13T15:18:21;101643.03;;;7.70;63.04
66176;BME280;52977;44.816;20.538;2023-02-13T15:20:55;101660.56;;;7.79;63.19
66176;BME280;52977;44.816;20.538;2023-02-13T15:23:41;101669.97;;;7.72;63.50
66176;BME280;52977;44.816;20.538;2023-02-13T15:26:18;101629.88;;;7.57;63.32
66176;BME280;52977;44.816;20.538;2023-02-13T15:29:00;101660.16;;;7.93;63.25
66176;BME280;52977;44.816;20.538;2023-02-13T15:31:30;101660.63;;;7.84;63.50
66176;BME280;52977;44.816;20.538;2023-02-13T15:33:58;101660.63;;;7.84;63.35
66176;BME280;52977;44.816;20.538;2023-02-13T15:36:34;101655.78;;;7.92;63.57
66176;BME280;52977;44.816;20.538;2023-02-13T15:39:03;101648.97;;;7.89;63.67
66176;BME280;52977;44.816;20.538;2023-02-13T15:41:37;101650.88;;;7.89;63.22
66176;BME280;52977;44.816;20.538;2023-02-13T15:44:06;101626.13;;;7.63;64.66
66176;BME280;52977;44.816;20.538;2023-02-13T15:46:36;101661.59;;;7.73;64.66
66176;BME280;52977;44.816;20.538;2023-02-13T15:49:13;101646.28;;;7.67;64.92
66176;BME280;52977;44.816;20.538;2023-02-13T15:51:41;101655.03;;;7.69;65.46
66176;BME280;52977;44.816;20.538;2023-02-13T15:54:30;101655.81;;;7.69;65.60